sensor_id;sensor_type;location;lat;lon;timestamp;P1;durP1;ratioP1;P2;durP2;ratioP2
66189;SDS011;52992;52.084;5.412;2023-12-28T00:02:12;5.53;;;3.20;;
66189;SDS011;52992;52.084;5.412;2023-12-28T00:04:40;4.73;;;3.27;;
66189;SDS011;52992;52.084;5.412;2023-12-28T00:07:07;6.07;;;3.23;;
66189;SDS011;52992;52.084;5.412;2023-12-28T00:09:34;4.77;;;3.47;;
66189;SDS011;52992;52.084;5.412;2023-12-28T00:12:01;6.80;;;3.30;;
66189;SDS011;52992;52.084;5.412;2023-12-28T00:14:28;5.63;;;3.07;;
66189;SDS011;52992;52.084;5.412;2023-12-28T00:16:55;8.43;;;3.50;;
66189;SDS011;52992;52.084;5.412;2023-12-28T00:19:22;7.40;;;3.97;;
66189;SDS011;52992;52.084;5.412;2023-12-28T00:21:49;3.73;;;3.00;;
66189;SDS011;52992;52.084;5.412;2023-12-28T00:24:20;4.60;;;3.30;;
66189;SDS011;52992;52.084;5.412;2023-12-28T00:26:48;4.63;;;3.33;;
66189;SDS011;52992;52.084;5.412;2023-12-28T00:29:15;5.60;;;2.97;;
66189;SDS011;52992;52.084;5.412;2023-12-28T00:31:42;8.43;;;3.07;;
66189;SDS011;52992;52.084;5.412;2023-12-28T00:34:09;4.20;;;3.00;;
66189;SDS011;52992;52.084;5.412;2023-12-28T00:36:37;8.07;;;3.00;;
66189;SDS011;52992;52.084;5.412;2023-12-28T00:39:04;7.80;;;3.50;;
66189;SDS011;52992;52.084;5.412;2023-12-28T00:41:31;6.50;;;3.47;;
66189;SDS011;52992;52.084;5.412;2023-12-28T00:43:58;5.17;;;3.00;;
66189;SDS011;52992;52.084;5.412;2023-12-28T00:46:25;7.60;;;3.07;;
66189;SDS011;52992;52.084;5.412;2023-12-28T00:48:52;5.53;;;3.03;;
66189;SDS011;52992;52.084;5.412;2023-12-28T00:51:19;6.77;;;3.40;;
66189;SDS011;52992;52.084;5.412;2023-12-28T00:53:47;6.23;;;3.20;;
66189;SDS011;52992;52.084;5.412;2023-12-28T00:56:15;6.80;;;3.40;;
66189;SDS011;52992;52.084;5.412;2023-12-28T00:58:42;5.10;;;3.07;;
66189;SDS011;52992;52.084;5.412;2023-12-28T01:01:10;4.77;;;3.13;;
66189;SDS011;52992;52.084;5.412;2023-12-28T01:03:39;6.40;;;3.40;;
66189;SDS011;52992;52.084;5.412;2023-12-28T01:06:06;5.30;;;3.20;;
66189;SDS011;52992;52.084;5.412;2023-12-28T01:08:33;7.03;;;3.67;;
66189;SDS011;52992;52.084;5.412;2023-12-28T01:11:01;8.90;;;3.43;;
66189;SDS011;52992;52.084;5.412;2023-12-28T01:13:29;4.10;;;3.03;;
66189;SDS011;52992;52.084;5.412;2023-12-28T01:15:57;7.00;;;3.20;;
66189;SDS011;52992;52.084;5.412;2023-12-28T01:18:24;6.60;;;2.80;;
66189;SDS011;52992;52.084;5.412;2023-12-28T01:20:51;7.90;;;3.30;;
66189;SDS011;52992;52.084;5.412;2023-12-28T01:23:18;6.13;;;3.00;;
66189;SDS011;52992;52.084;5.412;2023-12-28T01:25:45;6.60;;;3.50;;
66189;SDS011;52992;52.084;5.412;2023-12-28T01:28:12;6.73;;;3.03;;
66189;SDS011;52992;52.084;5.412;2023-12-28T01:30:39;4.07;;;2.90;;
66189;SDS011;52992;52.084;5.412;2023-12-28T01:33:06;5.20;;;2.90;;
66189;SDS011;52992;52.084;5.412;2023-12-28T01:35:33;6.30;;;2.90;;
66189;SDS011;52992;52.084;5.412;2023-12-28T01:38:00;4.23;;;2.97;;
66189;SDS011;52992;52.084;5.412;2023-12-28T01:40:28;4.40;;;2.80;;
66189;SDS011;52992;52.084;5.412;2023-12-28T01:42:55;3.17;;;2.77;;
66189;SDS011;52992;52.084;5.412;2023-12-28T01:45:22;3.30;;;2.70;;
66189;SDS011;52992;52.084;5.412;2023-12-28T01:47:49;7.70;;;3.40;;
66189;SDS011;52992;52.084;5.412;2023-12-28T01:50:18;8.67;;;2.70;;
66189;SDS011;52992;52.084;5.412;2023-12-28T01:52:46;6.13;;;3.20;;
66189;SDS011;52992;52.084;5.412;2023-12-28T01:55:15;6.50;;;3.30;;
66189;SDS011;52992;52.084;5.412;2023-12-28T01:57:43;3.87;;;3.00;;
66189;SDS011;52992;52.084;5.412;2023-12-28T02:00:11;8.63;;;3.40;;
66189;SDS011;52992;52.084;5.412;2023-12-28T02:02:40;3.97;;;2.93;;
66189;SDS011;52992;52.084;5.412;2023-12-28T02:05:09;5.10;;;3.30;;
66189;SDS011;52992;52.084;5.412;2023-12-28T02:07:39;7.10;;;3.13;;
66189;SDS011;52992;52.084;5.412;2023-12-28T02:10:06;4.50;;;3.13;;
66189;SDS011;52992;52.084;5.412;2023-12-28T02:12:34;5.73;;;2.83;;
66189;SDS011;52992;52.084;5.412;2023-12-28T02:15:01;5.20;;;3.17;;
66189;SDS011;52992;52.084;5.412;2023-12-28T02:17:30;9.40;;;3.30;;
66189;SDS011;52992;52.084;5.412;2023-12-28T02:20:02;4.43;;;3.23;;
66189;SDS011;52992;52.084;5.412;2023-12-28T02:22:33;4.87;;;3.20;;
66189;SDS011;52992;52.084;5.412;2023-12-28T02:25:03;5.67;;;3.13;;
66189;SDS011;52992;52.084;5.412;2023-12-28T02:27:33;6.33;;;3.07;;
66189;SDS011;52992;52.084;5.412;2023-12-28T02:30:08;4.17;;;3.13;;
66189;SDS011;52992;52.084;5.412;2023-12-28T02:33:01;5.70;;;2.77;;
66189;SDS011;52992;52.084;5.412;2023-12-28T02:36:04;5.97;;;3.03;;
66189;SDS011;52992;52.084;5.412;2023-12-28T02:38:36;5.97;;;3.27;;
66189;SDS011;52992;52.084;5.412;2023-12-28T02:41:05;4.07;;;2.57;;
66189;SDS011;52992;52.084;5.412;2023-12-28T02:43:33;7.83;;;2.87;;
66189;SDS011;52992;52.084;5.412;2023-12-28T02:46:00;6.13;;;2.60;;
66189;SDS011;52992;52.084;5.412;2023-12-28T02:48:27;4.00;;;2.53;;
66189;SDS011;52992;52.084;5.412;2023-12-28T02:50:55;5.23;;;2.40;;
66189;SDS011;52992;52.084;5.412;2023-12-28T02:53:21;6.20;;;2.60;;
66189;SDS011;52992;52.084;5.412;2023-12-28T02:55:48;4.50;;;2.50;;
66189;SDS011;52992;52.084;5.412;2023-12-28T02:58:15;6.33;;;2.63;;
66189;SDS011;52992;52.084;5.412;2023-12-28T03:00:42;6.77;;;2.23;;
66189;SDS011;52992;52.084;5.412;2023-12-28T03:03:09;5.20;;;2.30;;
66189;SDS011;52992;52.084;5.412;2023-12-28T03:05:36;5.73;;;2.70;;
66189;SDS011;52992;52.084;5.412;2023-12-28T03:08:03;5.20;;;2.53;;
66189;SDS011;52992;52.084;5.412;2023-12-28T03:10:30;7.00;;;3.00;;
66189;SDS011;52992;52.084;5.412;2023-12-28T03:12:58;8.50;;;2.40;;
66189;SDS011;52992;52.084;5.412;2023-12-28T03:15:25;7.80;;;2.53;;
66189;SDS011;52992;52.084;5.412;2023-12-28T03:17:52;6.83;;;2.53;;
66189;SDS011;52992;52.084;5.412;2023-12-28T03:20:19;5.50;;;2.70;;
66189;SDS011;52992;52.084;5.412;2023-12-28T03:22:46;7.50;;;2.50;;
66189;SDS011;52992;52.084;5.412;2023-12-28T03:25:14;4.97;;;2.40;;
66189;SDS011;52992;52.084;5.412;2023-12-28T03:27:41;4.60;;;2.67;;
66189;SDS011;52992;52.084;5.412;2023-12-28T03:30:09;6.23;;;2.63;;
66189;SDS011;52992;52.084;5.412;2023-12-28T03:32:37;3.70;;;2.40;;
66189;SDS011;52992;52.084;5.412;2023-12-28T03:35:04;11.17;;;3.17;;
66189;SDS011;52992;52.084;5.412;2023-12-28T03:37:33;5.43;;;2.30;;
66189;SDS011;52992;52.084;5.412;2023-12-28T03:40:00;3.87;;;2.10;;
66189;SDS011;52992;52.084;5.412;2023-12-28T03:42:28;4.13;;;2.20;;
66189;SDS011;52992;52.084;5.412;2023-12-28T03:44:55;4.37;;;2.30;;
66189;SDS011;52992;52.084;5.412;2023-12-28T03:47:22;7.37;;;2.40;;
66189;SDS011;52992;52.084;5.412;2023-12-28T03:49:50;6.80;;;2.30;;
66189;SDS011;52992;52.084;5.412;2023-12-28T03:52:17;6.63;;;2.90;;
66189;SDS011;52992;52.084;5.412;2023-12-28T03:54:44;8.97;;;2.37;;
66189;SDS011;52992;52.084;5.412;2023-12-28T03:57:12;5.47;;;2.37;;
66189;SDS011;52992;52.084;5.412;2023-12-28T03:59:39;8.47;;;2.70;;
66189;SDS011;52992;52.084;5.412;2023-12-28T04:02:06;5.77;;;2.93;;
66189;SDS011;52992;52.084;5.412;2023-12-28T04:04:32;9.77;;;2.60;;
66189;SDS011;52992;52.084;5.412;2023-12-28T04:06:59;3.57;;;2.00;;
66189;SDS011;52992;52.084;5.412;2023-12-28T04:09:26;7.13;;;2.30;;
66189;SDS011;52992;52.084;5.412;2023-12-28T04:11:53;8.27;;;2.40;;
66189;SDS011;52992;52.084;5.412;2023-12-28T04:14:20;5.40;;;2.53;;
66189;SDS011;52992;52.084;5.412;2023-12-28T04:16:47;7.80;;;2.30;;
66189;SDS011;52992;52.084;5.412;2023-12-28T04:19:14;6.07;;;2.50;;
66189;SDS011;52992;52.084;5.412;2023-12-28T04:21:45;5.37;;;2.27;;
66189;SDS011;52992;52.084;5.412;2023-12-28T04:24:11;3.73;;;2.37;;
66189;SDS011;52992;52.084;5.412;2023-12-28T04:26:38;7.63;;;2.60;;
66189;SDS011;52992;52.084;5.412;2023-12-28T04:29:06;6.53;;;2.50;;
66189;SDS011;52992;52.084;5.412;2023-12-28T04:31:33;10.57;;;2.60;;
66189;SDS011;52992;52.084;5.412;2023-12-28T04:34:08;5.27;;;2.00;;
66189;SDS011;52992;52.084;5.412;2023-12-28T04:36:42;9.27;;;2.53;;
66189;SDS011;52992;52.084;5.412;2023-12-28T04:39:09;6.70;;;2.50;;
66189;SDS011;52992;52.084;5.412;2023-12-28T04:41:37;9.90;;;2.77;;
66189;SDS011;52992;52.084;5.412;2023-12-28T04:44:04;5.57;;;2.53;;
66189;SDS011;52992;52.084;5.412;2023-12-28T04:46:30;7.90;;;2.80;;
66189;SDS011;52992;52.084;5.412;2023-12-28T04:48:57;8.33;;;2.37;;
66189;SDS011;52992;52.084;5.412;2023-12-28T04:51:24;7.67;;;2.40;;
66189;SDS011;52992;52.084;5.412;2023-12-28T04:53:52;7.13;;;2.60;;
66189;SDS011;52992;52.084;5.412;2023-12-28T04:56:19;10.63;;;2.77;;
66189;SDS011;52992;52.084;5.412;2023-12-28T04:58:46;6.13;;;2.17;;
66189;SDS011;52992;52.084;5.412;2023-12-28T05:01:12;5.33;;;2.03;;
66189;SDS011;52992;52.084;5.412;2023-12-28T05:03:39;4.87;;;2.47;;
66189;SDS011;52992;52.084;5.412;2023-12-28T05:06:06;5.60;;;2.20;;
66189;SDS011;52992;52.084;5.412;2023-12-28T05:08:33;16.90;;;3.50;;
66189;SDS011;52992;52.084;5.412;2023-12-28T05:11:00;5.70;;;2.20;;
66189;SDS011;52992;52.084;5.412;2023-12-28T05:13:27;7.77;;;2.57;;
66189;SDS011;52992;52.084;5.412;2023-12-28T05:15:54;7.67;;;2.70;;
66189;SDS011;52992;52.084;5.412;2023-12-28T05:18:21;7.03;;;2.23;;
66189;SDS011;52992;52.084;5.412;2023-12-28T05:20:48;7.80;;;3.07;;
66189;SDS011;52992;52.084;5.412;2023-12-28T05:23:15;9.73;;;2.33;;
66189;SDS011;52992;52.084;5.412;2023-12-28T05:25:42;10.20;;;2.30;;
66189;SDS011;52992;52.084;5.412;2023-12-28T05:28:09;9.53;;;2.47;;
66189;SDS011;52992;52.084;5.412;2023-12-28T05:30:35;7.10;;;2.23;;
66189;SDS011;52992;52.084;5.412;2023-12-28T05:33:02;10.17;;;2.77;;
66189;SDS011;52992;52.084;5.412;2023-12-28T05:35:30;11.50;;;2.27;;
66189;SDS011;52992;52.084;5.412;2023-12-28T05:37:57;6.47;;;2.43;;
66189;SDS011;52992;52.084;5.412;2023-12-28T05:40:24;11.23;;;2.60;;
66189;SDS011;52992;52.084;5.412;2023-12-28T05:42:51;12.63;;;2.83;;
66189;SDS011;52992;52.084;5.412;2023-12-28T05:45:18;10.23;;;2.50;;
66189;SDS011;52992;52.084;5.412;2023-12-28T05:47:45;10.50;;;2.17;;
66189;SDS011;52992;52.084;5.412;2023-12-28T05:50:12;7.53;;;2.63;;
66189;SDS011;52992;52.084;5.412;2023-12-28T05:52:39;9.07;;;2.50;;
66189;SDS011;52992;52.084;5.412;2023-12-28T05:55:06;9.40;;;2.80;;
66189;SDS011;52992;52.084;5.412;2023-12-28T05:57:34;9.60;;;3.00;;
66189;SDS011;52992;52.084;5.412;2023-12-28T06:00:01;8.57;;;2.43;;
66189;SDS011;52992;52.084;5.412;2023-12-28T06:02:37;11.40;;;2.40;;
66189;SDS011;52992;52.084;5.412;2023-12-28T06:05:04;10.47;;;2.60;;
66189;SDS011;52992;52.084;5.412;2023-12-28T06:07:32;10.37;;;2.57;;
66189;SDS011;52992;52.084;5.412;2023-12-28T06:09:59;7.97;;;2.47;;
66189;SDS011;52992;52.084;5.412;2023-12-28T06:12:26;9.27;;;2.50;;
66189;SDS011;52992;52.084;5.412;2023-12-28T06:14:53;13.60;;;2.60;;
66189;SDS011;52992;52.084;5.412;2023-12-28T06:17:20;15.73;;;2.60;;
66189;SDS011;52992;52.084;5.412;2023-12-28T06:19:47;7.30;;;2.40;;
66189;SDS011;52992;52.084;5.412;2023-12-28T06:22:14;6.47;;;2.23;;
66189;SDS011;52992;52.084;5.412;2023-12-28T06:24:41;10.27;;;2.40;;
66189;SDS011;52992;52.084;5.412;2023-12-28T06:27:08;9.77;;;2.47;;
66189;SDS011;52992;52.084;5.412;2023-12-28T06:29:35;9.93;;;2.77;;
66189;SDS011;52992;52.084;5.412;2023-12-28T06:32:02;5.83;;;2.33;;
66189;SDS011;52992;52.084;5.412;2023-12-28T06:34:29;7.73;;;2.37;;
66189;SDS011;52992;52.084;5.412;2023-12-28T06:36:56;11.50;;;2.70;;
66189;SDS011;52992;52.084;5.412;2023-12-28T06:39:23;9.77;;;2.23;;
66189;SDS011;52992;52.084;5.412;2023-12-28T06:41:50;11.40;;;3.03;;
66189;SDS011;52992;52.084;5.412;2023-12-28T06:44:17;16.77;;;2.73;;
66189;SDS011;52992;52.084;5.412;2023-12-28T06:46:44;13.33;;;2.60;;
66189;SDS011;52992;52.084;5.412;2023-12-28T06:49:10;13.00;;;2.40;;
66189;SDS011;52992;52.084;5.412;2023-12-28T06:51:38;14.43;;;2.43;;
66189;SDS011;52992;52.084;5.412;2023-12-28T06:54:05;16.87;;;2.70;;
66189;SDS011;52992;52.084;5.412;2023-12-28T06:56:32;10.73;;;2.67;;
66189;SDS011;52992;52.084;5.412;2023-12-28T06:58:58;17.77;;;2.87;;
66189;SDS011;52992;52.084;5.412;2023-12-28T07:01:25;12.60;;;3.57;;
66189;SDS011;52992;52.084;5.412;2023-12-28T07:03:52;10.97;;;2.77;;
66189;SDS011;52992;52.084;5.412;2023-12-28T07:06:19;10.73;;;2.30;;
66189;SDS011;52992;52.084;5.412;2023-12-28T07:08:46;12.90;;;2.50;;
66189;SDS011;52992;52.084;5.412;2023-12-28T07:11:13;11.90;;;3.33;;
66189;SDS011;52992;52.084;5.412;2023-12-28T07:13:40;11.50;;;2.60;;
66189;SDS011;52992;52.084;5.412;2023-12-28T07:16:07;9.63;;;2.43;;
66189;SDS011;52992;52.084;5.412;2023-12-28T07:18:34;15.67;;;3.00;;
66189;SDS011;52992;52.084;5.412;2023-12-28T07:21:01;11.23;;;3.23;;
66189;SDS011;52992;52.084;5.412;2023-12-28T07:23:28;10.40;;;2.53;;
66189;SDS011;52992;52.084;5.412;2023-12-28T07:25:55;13.93;;;2.93;;
66189;SDS011;52992;52.084;5.412;2023-12-28T07:28:22;13.33;;;3.03;;
66189;SDS011;52992;52.084;5.412;2023-12-28T07:30:49;13.63;;;3.37;;
66189;SDS011;52992;52.084;5.412;2023-12-28T07:33:16;11.57;;;3.10;;
66189;SDS011;52992;52.084;5.412;2023-12-28T07:35:43;7.30;;;2.80;;
66189;SDS011;52992;52.084;5.412;2023-12-28T07:38:10;13.27;;;2.90;;
66189;SDS011;52992;52.084;5.412;2023-12-28T07:40:37;9.90;;;2.70;;
66189;SDS011;52992;52.084;5.412;2023-12-28T07:43:04;13.20;;;2.63;;
66189;SDS011;52992;52.084;5.412;2023-12-28T07:45:31;9.80;;;2.30;;
66189;SDS011;52992;52.084;5.412;2023-12-28T07:48:01;10.70;;;2.90;;
66189;SDS011;52992;52.084;5.412;2023-12-28T07:50:28;16.53;;;2.50;;
66189;SDS011;52992;52.084;5.412;2023-12-28T07:52:55;10.60;;;3.07;;
66189;SDS011;52992;52.084;5.412;2023-12-28T07:55:22;13.00;;;2.87;;
66189;SDS011;52992;52.084;5.412;2023-12-28T07:57:49;15.67;;;3.23;;
66189;SDS011;52992;52.084;5.412;2023-12-28T08:00:16;10.07;;;2.80;;
66189;SDS011;52992;52.084;5.412;2023-12-28T08:02:43;11.23;;;2.60;;
66189;SDS011;52992;52.084;5.412;2023-12-28T08:05:10;13.23;;;2.80;;
66189;SDS011;52992;52.084;5.412;2023-12-28T08:07:37;10.63;;;2.53;;
66189;SDS011;52992;52.084;5.412;2023-12-28T08:10:04;10.03;;;2.60;;
66189;SDS011;52992;52.084;5.412;2023-12-28T08:12:32;10.37;;;2.70;;
66189;SDS011;52992;52.084;5.412;2023-12-28T08:14:59;12.53;;;2.43;;
66189;SDS011;52992;52.084;5.412;2023-12-28T08:17:26;12.87;;;2.57;;
66189;SDS011;52992;52.084;5.412;2023-12-28T08:19:53;8.77;;;2.23;;
66189;SDS011;52992;52.084;5.412;2023-12-28T08:22:22;11.33;;;2.50;;
66189;SDS011;52992;52.084;5.412;2023-12-28T08:24:49;11.63;;;2.73;;
66189;SDS011;52992;52.084;5.412;2023-12-28T08:27:15;10.97;;;2.40;;
66189;SDS011;52992;52.084;5.412;2023-12-28T08:29:42;10.43;;;2.37;;
66189;SDS011;52992;52.084;5.412;2023-12-28T08:32:09;12.47;;;2.50;;
66189;SDS011;52992;52.084;5.412;2023-12-28T08:34:37;10.10;;;2.80;;
66189;SDS011;52992;52.084;5.412;2023-12-28T08:37:04;16.03;;;3.20;;
66189;SDS011;52992;52.084;5.412;2023-12-28T08:39:31;9.23;;;2.97;;
66189;SDS011;52992;52.084;5.412;2023-12-28T08:41:58;11.40;;;2.50;;
66189;SDS011;52992;52.084;5.412;2023-12-28T08:44:25;13.27;;;3.43;;
66189;SDS011;52992;52.084;5.412;2023-12-28T08:46:52;10.97;;;2.70;;
66189;SDS011;52992;52.084;5.412;2023-12-28T08:49:19;11.53;;;2.40;;
66189;SDS011;52992;52.084;5.412;2023-12-28T08:51:47;9.20;;;2.73;;
66189;SDS011;52992;52.084;5.412;2023-12-28T08:54:14;10.63;;;2.63;;
66189;SDS011;52992;52.084;5.412;2023-12-28T08:56:41;10.70;;;2.77;;
66189;SDS011;52992;52.084;5.412;2023-12-28T08:59:08;13.37;;;2.87;;
66189;SDS011;52992;52.084;5.412;2023-12-28T09:01:35;11.53;;;2.67;;
66189;SDS011;52992;52.084;5.412;2023-12-28T09:04:02;12.70;;;3.10;;
66189;SDS011;52992;52.084;5.412;2023-12-28T09:06:29;17.00;;;3.30;;
66189;SDS011;52992;52.084;5.412;2023-12-28T09:08:56;14.30;;;3.50;;
66189;SDS011;52992;52.084;5.412;2023-12-28T09:11:23;10.57;;;2.97;;
66189;SDS011;52992;52.084;5.412;2023-12-28T09:13:50;8.47;;;2.97;;
66189;SDS011;52992;52.084;5.412;2023-12-28T09:16:17;10.97;;;2.73;;
66189;SDS011;52992;52.084;5.412;2023-12-28T09:18:44;8.60;;;2.27;;
66189;SDS011;52992;52.084;5.412;2023-12-28T09:21:11;16.60;;;2.80;;
66189;SDS011;52992;52.084;5.412;2023-12-28T09:23:39;17.53;;;3.23;;
66189;SDS011;52992;52.084;5.412;2023-12-28T09:26:07;20.33;;;3.77;;
66189;SDS011;52992;52.084;5.412;2023-12-28T09:28:34;11.93;;;2.80;;
66189;SDS011;52992;52.084;5.412;2023-12-28T09:31:02;16.50;;;2.93;;
66189;SDS011;52992;52.084;5.412;2023-12-28T09:33:29;20.57;;;3.13;;
66189;SDS011;52992;52.084;5.412;2023-12-28T09:35:57;14.57;;;2.27;;
66189;SDS011;52992;52.084;5.412;2023-12-28T09:38:24;12.40;;;2.90;;
66189;SDS011;52992;52.084;5.412;2023-12-28T09:40:53;14.47;;;3.13;;
66189;SDS011;52992;52.084;5.412;2023-12-28T09:43:25;6.13;;;2.43;;
66189;SDS011;52992;52.084;5.412;2023-12-28T09:45:53;11.23;;;2.60;;
66189;SDS011;52992;52.084;5.412;2023-12-28T09:48:23;12.23;;;2.97;;
66189;SDS011;52992;52.084;5.412;2023-12-28T09:50:51;15.93;;;3.13;;
66189;SDS011;52992;52.084;5.412;2023-12-28T09:53:22;13.73;;;3.17;;
66189;SDS011;52992;52.084;5.412;2023-12-28T09:55:50;11.07;;;2.60;;
66189;SDS011;52992;52.084;5.412;2023-12-28T09:58:18;10.10;;;2.40;;
66189;SDS011;52992;52.084;5.412;2023-12-28T10:00:47;13.87;;;2.70;;
66189;SDS011;52992;52.084;5.412;2023-12-28T10:03:16;13.93;;;2.60;;
66189;SDS011;52992;52.084;5.412;2023-12-28T10:05:44;12.77;;;3.10;;
66189;SDS011;52992;52.084;5.412;2023-12-28T10:08:12;11.93;;;3.37;;
66189;SDS011;52992;52.084;5.412;2023-12-28T10:10:43;12.40;;;2.77;;
66189;SDS011;52992;52.084;5.412;2023-12-28T10:13:17;14.17;;;3.27;;
66189;SDS011;52992;52.084;5.412;2023-12-28T10:15:44;11.30;;;2.90;;
66189;SDS011;52992;52.084;5.412;2023-12-28T10:18:11;7.03;;;2.13;;
66189;SDS011;52992;52.084;5.412;2023-12-28T10:20:39;16.73;;;3.17;;
66189;SDS011;52992;52.084;5.412;2023-12-28T10:23:06;12.43;;;2.70;;
66189;SDS011;52992;52.084;5.412;2023-12-28T10:25:33;16.80;;;2.80;;
66189;SDS011;52992;52.084;5.412;2023-12-28T10:28:05;12.10;;;3.53;;
66189;SDS011;52992;52.084;5.412;2023-12-28T10:30:34;11.03;;;3.27;;
66189;SDS011;52992;52.084;5.412;2023-12-28T10:33:04;17.70;;;3.63;;
66189;SDS011;52992;52.084;5.412;2023-12-28T10:35:33;15.47;;;3.53;;
66189;SDS011;52992;52.084;5.412;2023-12-28T10:38:00;6.53;;;3.23;;
66189;SDS011;52992;52.084;5.412;2023-12-28T10:40:30;16.13;;;3.57;;
66189;SDS011;52992;52.084;5.412;2023-12-28T10:43:04;21.77;;;3.93;;
66189;SDS011;52992;52.084;5.412;2023-12-28T10:45:33;5.97;;;2.13;;
66189;SDS011;52992;52.084;5.412;2023-12-28T10:48:05;13.03;;;3.07;;
66189;SDS011;52992;52.084;5.412;2023-12-28T10:50:42;13.03;;;3.07;;
66189;SDS011;52992;52.084;5.412;2023-12-28T10:58:48;10.40;;;3.60;;
66189;SDS011;52992;52.084;5.412;2023-12-28T11:01:17;13.90;;;3.53;;
66189;SDS011;52992;52.084;5.412;2023-12-28T11:06:49;14.47;;;3.23;;
66189;SDS011;52992;52.084;5.412;2023-12-28T11:09:17;13.60;;;3.50;;
66189;SDS011;52992;52.084;5.412;2023-12-28T11:11:46;13.17;;;2.87;;
66189;SDS011;52992;52.084;5.412;2023-12-28T11:14:16;11.77;;;3.50;;
66189;SDS011;52992;52.084;5.412;2023-12-28T11:16:44;9.13;;;2.30;;
66189;SDS011;52992;52.084;5.412;2023-12-28T11:19:12;12.63;;;3.27;;
66189;SDS011;52992;52.084;5.412;2023-12-28T11:21:39;16.67;;;2.80;;
66189;SDS011;52992;52.084;5.412;2023-12-28T11:24:07;17.00;;;3.33;;
66189;SDS011;52992;52.084;5.412;2023-12-28T11:26:34;13.30;;;2.90;;
66189;SDS011;52992;52.084;5.412;2023-12-28T11:29:02;14.87;;;3.20;;
66189;SDS011;52992;52.084;5.412;2023-12-28T11:31:33;15.20;;;3.57;;
66189;SDS011;52992;52.084;5.412;2023-12-28T11:34:01;10.80;;;2.87;;
66189;SDS011;52992;52.084;5.412;2023-12-28T11:39:01;9.33;;;3.17;;
66189;SDS011;52992;52.084;5.412;2023-12-28T11:41:32;14.17;;;3.43;;
66189;SDS011;52992;52.084;5.412;2023-12-28T11:44:04;12.13;;;2.73;;
66189;SDS011;52992;52.084;5.412;2023-12-28T11:46:32;16.00;;;3.07;;
66189;SDS011;52992;52.084;5.412;2023-12-28T11:49:05;15.03;;;3.33;;
66189;SDS011;52992;52.084;5.412;2023-12-28T11:51:35;14.40;;;3.23;;
66189;SDS011;52992;52.084;5.412;2023-12-28T11:54:04;10.27;;;3.23;;
66189;SDS011;52992;52.084;5.412;2023-12-28T11:56:32;12.77;;;2.60;;
66189;SDS011;52992;52.084;5.412;2023-12-28T11:59:00;12.40;;;3.93;;
66189;SDS011;52992;52.084;5.412;2023-12-28T12:01:27;19.00;;;3.80;;
66189;SDS011;52992;52.084;5.412;2023-12-28T12:03:54;12.23;;;3.57;;
66189;SDS011;52992;52.084;5.412;2023-12-28T12:06:21;16.60;;;3.43;;
66189;SDS011;52992;52.084;5.412;2023-12-28T12:08:48;10.10;;;2.80;;
66189;SDS011;52992;52.084;5.412;2023-12-28T12:11:16;13.17;;;3.17;;
66189;SDS011;52992;52.084;5.412;2023-12-28T12:13:46;12.17;;;3.60;;
66189;SDS011;52992;52.084;5.412;2023-12-28T12:16:16;12.67;;;3.43;;
66189;SDS011;52992;52.084;5.412;2023-12-28T12:18:43;19.77;;;3.83;;
66189;SDS011;52992;52.084;5.412;2023-12-28T12:21:11;9.63;;;3.00;;
66189;SDS011;52992;52.084;5.412;2023-12-28T12:23:38;17.77;;;3.43;;
66189;SDS011;52992;52.084;5.412;2023-12-28T12:26:06;17.43;;;3.30;;
66189;SDS011;52992;52.084;5.412;2023-12-28T12:28:33;16.40;;;2.73;;
66189;SDS011;52992;52.084;5.412;2023-12-28T12:31:02;12.93;;;3.03;;
66189;SDS011;52992;52.084;5.412;2023-12-28T12:33:31;14.73;;;2.57;;
66189;SDS011;52992;52.084;5.412;2023-12-28T12:35:58;11.83;;;2.80;;
66189;SDS011;52992;52.084;5.412;2023-12-28T12:38:26;13.93;;;3.93;;
66189;SDS011;52992;52.084;5.412;2023-12-28T12:40:53;16.40;;;3.20;;
66189;SDS011;52992;52.084;5.412;2023-12-28T12:43:20;10.23;;;3.33;;
66189;SDS011;52992;52.084;5.412;2023-12-28T12:45:48;12.43;;;3.17;;
66189;SDS011;52992;52.084;5.412;2023-12-28T12:48:15;16.37;;;2.90;;
66189;SDS011;52992;52.084;5.412;2023-12-28T12:50:43;13.77;;;3.10;;
66189;SDS011;52992;52.084;5.412;2023-12-28T12:53:11;22.13;;;3.50;;
66189;SDS011;52992;52.084;5.412;2023-12-28T12:55:38;15.30;;;2.97;;
66189;SDS011;52992;52.084;5.412;2023-12-28T12:58:05;17.03;;;2.97;;
66189;SDS011;52992;52.084;5.412;2023-12-28T13:00:32;14.73;;;3.27;;
66189;SDS011;52992;52.084;5.412;2023-12-28T13:02:59;18.47;;;2.97;;
66189;SDS011;52992;52.084;5.412;2023-12-28T13:05:28;19.27;;;3.57;;
66189;SDS011;52992;52.084;5.412;2023-12-28T13:07:55;15.73;;;3.60;;
66189;SDS011;52992;52.084;5.412;2023-12-28T13:10:22;10.27;;;2.60;;
66189;SDS011;52992;52.084;5.412;2023-12-28T13:12:49;12.53;;;2.77;;
66189;SDS011;52992;52.084;5.412;2023-12-28T13:15:16;15.43;;;3.03;;
66189;SDS011;52992;52.084;5.412;2023-12-28T13:17:43;16.53;;;3.60;;
66189;SDS011;52992;52.084;5.412;2023-12-28T13:20:10;14.17;;;3.03;;
66189;SDS011;52992;52.084;5.412;2023-12-28T13:22:37;15.07;;;3.30;;
66189;SDS011;52992;52.084;5.412;2023-12-28T13:25:04;9.93;;;2.67;;
66189;SDS011;52992;52.084;5.412;2023-12-28T13:27:32;17.73;;;3.23;;
66189;SDS011;52992;52.084;5.412;2023-12-28T13:30:00;12.57;;;3.43;;
66189;SDS011;52992;52.084;5.412;2023-12-28T13:32:27;11.43;;;2.77;;
66189;SDS011;52992;52.084;5.412;2023-12-28T13:34:54;13.03;;;3.40;;
66189;SDS011;52992;52.084;5.412;2023-12-28T13:37:24;13.03;;;2.80;;
66189;SDS011;52992;52.084;5.412;2023-12-28T13:39:51;16.37;;;2.73;;
66189;SDS011;52992;52.084;5.412;2023-12-28T13:42:18;11.53;;;2.67;;
66189;SDS011;52992;52.084;5.412;2023-12-28T13:44:45;11.97;;;2.50;;
66189;SDS011;52992;52.084;5.412;2023-12-28T13:47:12;9.83;;;2.70;;
66189;SDS011;52992;52.084;5.412;2023-12-28T13:49:39;14.87;;;3.23;;
66189;SDS011;52992;52.084;5.412;2023-12-28T13:52:06;13.70;;;3.07;;
66189;SDS011;52992;52.084;5.412;2023-12-28T13:54:33;12.03;;;3.03;;
66189;SDS011;52992;52.084;5.412;2023-12-28T13:57:00;10.70;;;2.80;;
66189;SDS011;52992;52.084;5.412;2023-12-28T13:59:27;14.77;;;2.70;;
66189;SDS011;52992;52.084;5.412;2023-12-28T14:01:54;17.03;;;3.30;;
66189;SDS011;52992;52.084;5.412;2023-12-28T14:04:21;12.40;;;3.20;;
66189;SDS011;52992;52.084;5.412;2023-12-28T14:06:48;24.57;;;3.47;;
66189;SDS011;52992;52.084;5.412;2023-12-28T14:09:15;9.57;;;2.20;;
66189;SDS011;52992;52.084;5.412;2023-12-28T14:11:46;15.07;;;3.20;;
66189;SDS011;52992;52.084;5.412;2023-12-28T14:14:13;15.17;;;3.83;;
66189;SDS011;52992;52.084;5.412;2023-12-28T14:16:41;16.13;;;3.80;;
66189;SDS011;52992;52.084;5.412;2023-12-28T14:19:11;15.97;;;3.27;;
66189;SDS011;52992;52.084;5.412;2023-12-28T14:21:39;8.60;;;3.00;;
66189;SDS011;52992;52.084;5.412;2023-12-28T14:24:06;17.60;;;3.13;;
66189;SDS011;52992;52.084;5.412;2023-12-28T14:26:33;14.00;;;3.90;;
66189;SDS011;52992;52.084;5.412;2023-12-28T14:29:01;16.00;;;4.07;;
66189;SDS011;52992;52.084;5.412;2023-12-28T14:31:33;13.50;;;2.50;;
66189;SDS011;52992;52.084;5.412;2023-12-28T14:34:00;15.33;;;3.30;;
66189;SDS011;52992;52.084;5.412;2023-12-28T14:36:32;12.57;;;3.23;;
66189;SDS011;52992;52.084;5.412;2023-12-28T14:39:01;14.50;;;3.63;;
66189;SDS011;52992;52.084;5.412;2023-12-28T14:41:35;15.00;;;3.40;;
66189;SDS011;52992;52.084;5.412;2023-12-28T14:44:08;14.83;;;2.93;;
66189;SDS011;52992;52.084;5.412;2023-12-28T14:46:35;10.63;;;2.97;;
66189;SDS011;52992;52.084;5.412;2023-12-28T14:49:02;11.47;;;3.50;;
66189;SDS011;52992;52.084;5.412;2023-12-28T14:51:30;18.43;;;4.00;;
66189;SDS011;52992;52.084;5.412;2023-12-28T14:53:57;17.17;;;3.83;;
66189;SDS011;52992;52.084;5.412;2023-12-28T14:56:24;12.27;;;3.10;;